sensor_id;sensor_type;location;lat;lon;timestamp;temperature;humidity
3067;DHT22;1544;48.834;9.194;2023-06-22T00:01:58;23.30;52.20
3067;DHT22;1544;48.834;9.194;2023-06-22T00:04:35;23.20;52.40
3067;DHT22;1544;48.834;9.194;2023-06-22T00:07:10;23.30;52.70
3067;DHT22;1544;48.834;9.194;2023-06-22T00:09:46;23.20;53.00
3067;DHT22;1544;48.834;9.194;2023-06-22T00:12:22;23.10;53.50
3067;DHT22;1544;48.834;9.194;2023-06-22T00:14:58;23.10;53.30
3067;DHT22;1544;48.834;9.194;2023-06-22T00:17:34;23.10;53.50
3067;DHT22;1544;48.834;9.194;2023-06-22T00:20:11;23.10;53.90
3067;DHT22;1544;48.834;9.194;2023-06-22T00:22:47;23.00;54.20
3067;DHT22;1544;48.834;9.194;2023-06-22T00:25:23;23.00;54.40
3067;DHT22;1544;48.834;9.194;2023-06-22T00:27:59;23.00;54.70
3067;DHT22;1544;48.834;9.194;2023-06-22T00:30:35;22.90;55.20
3067;DHT22;1544;48.834;9.194;2023-06-22T00:33:12;22.90;55.50
3067;DHT22;1544;48.834;9.194;2023-06-22T00:35:49;22.90;55.80
3067;DHT22;1544;48.834;9.194;2023-06-22T00:38:28;22.80;55.90
3067;DHT22;1544;48.834;9.194;2023-06-22T00:41:04;22.80;56.30
3067;DHT22;1544;48.834;9.194;2023-06-22T00:43:40;22.80;56.50
3067;DHT22;1544;48.834;9.194;2023-06-22T00:46:17;22.80;56.70
3067;DHT22;1544;48.834;9.194;2023-06-22T00:48:53;22.70;56.60
3067;DHT22;1544;48.834;9.194;2023-06-22T00:51:32;22.70;56.70
3067;DHT22;1544;48.834;9.194;2023-06-22T00:54:09;22.70;56.90
3067;DHT22;1544;48.834;9.194;2023-06-22T00:56:46;22.50;57.10
3067;DHT22;1544;48.834;9.194;2023-06-22T00:59:23;22.60;57.90
3067;DHT22;1544;48.834;9.194;2023-06-22T01:02:01;22.60;58.30
3067;DHT22;1544;48.834;9.194;2023-06-22T01:04:38;22.60;58.40
3067;DHT22;1544;48.834;9.194;2023-06-22T01:07:31;22.60;58.40
3067;DHT22;1544;48.834;9.194;2023-06-22T01:16:33;22.40;59.10
3067;DHT22;1544;48.834;9.194;2023-06-22T01:19:27;22.30;60.20
3067;DHT22;1544;48.834;9.194;2023-06-22T01:22:13;22.20;61.30
3067;DHT22;1544;48.834;9.194;2023-06-22T01:25:07;22.20;61.80
3067;DHT22;1544;48.834;9.194;2023-06-22T01:27:56;22.20;61.80
3067;DHT22;1544;48.834;9.194;2023-06-22T01:30:36;22.20;62.50
3067;DHT22;1544;48.834;9.194;2023-06-22T01:33:16;22.10;62.50
3067;DHT22;1544;48.834;9.194;2023-06-22T01:35:52;22.10;63.10
3067;DHT22;1544;48.834;9.194;2023-06-22T01:38:29;22.10;63.10
3067;DHT22;1544;48.834;9.194;2023-06-22T01:41:05;22.00;63.20
3067;DHT22;1544;48.834;9.194;2023-06-22T01:43:41;22.00;63.50
3067;DHT22;1544;48.834;9.194;2023-06-22T01:46:19;22.10;63.10
3067;DHT22;1544;48.834;9.194;2023-06-22T01:48:55;22.00;63.20
3067;DHT22;1544;48.834;9.194;2023-06-22T01:51:32;22.00;63.40
3067;DHT22;1544;48.834;9.194;2023-06-22T01:54:08;22.00;63.70
3067;DHT22;1544;48.834;9.194;2023-06-22T01:56:44;21.90;63.60
3067;DHT22;1544;48.834;9.194;2023-06-22T01:59:26;22.00;64.00
3067;DHT22;1544;48.834;9.194;2023-06-22T02:02:09;21.90;64.20
3067;DHT22;1544;48.834;9.194;2023-06-22T02:04:58;21.90;64.50
3067;DHT22;1544;48.834;9.194;2023-06-22T02:07:46;21.90;64.70
3067;DHT22;1544;48.834;9.194;2023-06-22T02:10:24;21.80;64.50
3067;DHT22;1544;48.834;9.194;2023-06-22T02:13:04;21.80;64.50
3067;DHT22;1544;48.834;9.194;2023-06-22T02:15:42;21.80;65.00
3067;DHT22;1544;48.834;9.194;2023-06-22T02:18:20;21.80;65.70
3067;DHT22;1544;48.834;9.194;2023-06-22T02:20:56;21.70;66.30
3067;DHT22;1544;48.834;9.194;2023-06-22T02:23:32;21.70;66.60
3067;DHT22;1544;48.834;9.194;2023-06-22T02:26:11;21.70;66.80
3067;DHT22;1544;48.834;9.194;2023-06-22T02:28:47;21.70;67.20
3067;DHT22;1544;48.834;9.194;2023-06-22T02:31:25;21.70;67.50
3067;DHT22;1544;48.834;9.194;2023-06-22T02:34:06;21.70;67.70
3067;DHT22;1544;48.834;9.194;2023-06-22T02:36:42;21.60;67.70
3067;DHT22;1544;48.834;9.194;2023-06-22T02:39:27;21.60;68.00
3067;DHT22;1544;48.834;9.194;2023-06-22T02:42:03;21.60;68.40
3067;DHT22;1544;48.834;9.194;2023-06-22T02:44:39;21.50;68.60
3067;DHT22;1544;48.834;9.194;2023-06-22T02:47:15;21.50;68.80
3067;DHT22;1544;48.834;9.194;2023-06-22T02:49:51;21.40;68.90
3067;DHT22;1544;48.834;9.194;2023-06-22T02:52:27;21.50;69.60
3067;DHT22;1544;48.834;9.194;2023-06-22T02:55:04;21.40;69.60
3067;DHT22;1544;48.834;9.194;2023-06-22T02:57:40;21.40;69.90
3067;DHT22;1544;48.834;9.194;2023-06-22T03:00:20;21.40;70.30
3067;DHT22;1544;48.834;9.194;2023-06-22T03:02:58;21.40;70.50
3067;DHT22;1544;48.834;9.194;2023-06-22T03:05:34;21.30;70.60
3067;DHT22;1544;48.834;9.194;2023-06-22T03:08:11;21.30;70.70
3067;DHT22;1544;48.834;9.194;2023-06-22T03:10:47;21.20;70.90
3067;DHT22;1544;48.834;9.194;2023-06-22T03:13:23;21.20;71.20
3067;DHT22;1544;48.834;9.194;2023-06-22T03:15:59;21.20;71.40
3067;DHT22;1544;48.834;9.194;2023-06-22T03:18:35;21.20;71.60
3067;DHT22;1544;48.834;9.194;2023-06-22T03:21:11;21.10;71.70
3067;DHT22;1544;48.834;9.194;2023-06-22T03:23:47;21.10;71.80
3067;DHT22;1544;48.834;9.194;2023-06-22T03:26:23;21.10;72.20
3067;DHT22;1544;48.834;9.194;2023-06-22T03:29:02;21.10;72.40
3067;DHT22;1544;48.834;9.194;2023-06-22T03:31:39;21.10;72.40
3067;DHT22;1544;48.834;9.194;2023-06-22T03:34:16;21.10;72.40
3067;DHT22;1544;48.834;9.194;2023-06-22T03:36:52;21.00;72.30
3067;DHT22;1544;48.834;9.194;2023-06-22T03:39:28;21.00;72.50
3067;DHT22;1544;48.834;9.194;2023-06-22T03:42:04;21.00;72.60
3067;DHT22;1544;48.834;9.194;2023-06-22T03:44:41;21.00;72.80
3067;DHT22;1544;48.834;9.194;2023-06-22T03:47:17;21.00;72.80
3067;DHT22;1544;48.834;9.194;2023-06-22T03:49:53;20.90;72.80
3067;DHT22;1544;48.834;9.194;2023-06-22T03:52:30;20.90;72.80
3067;DHT22;1544;48.834;9.194;2023-06-22T03:55:07;21.00;73.00
3067;DHT22;1544;48.834;9.194;2023-06-22T03:57:43;21.00;72.90
3067;DHT22;1544;48.834;9.194;2023-06-22T04:00:20;21.00;72.70
3067;DHT22;1544;48.834;9.194;2023-06-22T04:02:56;21.00;72.70
3067;DHT22;1544;48.834;9.194;2023-06-22T04:05:33;21.00;72.60
3067;DHT22;1544;48.834;9.194;2023-06-22T04:08:09;21.00;72.60
3067;DHT22;1544;48.834;9.194;2023-06-22T04:10:45;21.10;72.50
3067;DHT22;1544;48.834;9.194;2023-06-22T04:13:21;21.10;72.30
3067;DHT22;1544;48.834;9.194;2023-06-22T04:15:57;21.10;72.30
3067;DHT22;1544;48.834;9.194;2023-06-22T04:18:33;21.10;72.20
3067;DHT22;1544;48.834;9.194;2023-06-22T04:21:10;21.10;72.00
3067;DHT22;1544;48.834;9.194;2023-06-22T04:23:46;21.20;71.90
3067;DHT22;1544;48.834;9.194;2023-06-22T04:26:22;21.20;71.50
3067;DHT22;1544;48.834;9.194;2023-06-22T04:28:58;21.30;71.40
3067;DHT22;1544;48.834;9.194;2023-06-22T04:31:35;21.30;71.40
3067;DHT22;1544;48.834;9.194;2023-06-22T04:34:14;21.30;70.70
3067;DHT22;1544;48.834;9.194;2023-06-22T04:36:52;21.40;70.50
3067;DHT22;1544;48.834;9.194;2023-06-22T04:39:27;21.40;70.20
3067;DHT22;1544;48.834;9.194;2023-06-22T04:42:04;21.40;70.10
3067;DHT22;1544;48.834;9.194;2023-06-22T04:44:40;21.50;69.90
3067;DHT22;1544;48.834;9.194;2023-06-22T04:47:17;21.50;69.70
3067;DHT22;1544;48.834;9.194;2023-06-22T04:49:53;21.50;69.50
3067;DHT22;1544;48.834;9.194;2023-06-22T04:52:29;21.60;68.70
3067;DHT22;1544;48.834;9.194;2023-06-22T04:55:05;21.60;68.90
3067;DHT22;1544;48.834;9.194;2023-06-22T04:57:42;21.70;68.70
3067;DHT22;1544;48.834;9.194;2023-06-22T05:00:20;21.70;68.40
3067;DHT22;1544;48.834;9.194;2023-06-22T05:02:58;21.80;68.00
3067;DHT22;1544;48.834;9.194;2023-06-22T05:05:53;21.80;67.70
3067;DHT22;1544;48.834;9.194;2023-06-22T05:08:29;21.90;67.30
3067;DHT22;1544;48.834;9.194;2023-06-22T05:11:05;21.90;66.90
3067;DHT22;1544;48.834;9.194;2023-06-22T05:13:41;22.00;66.50
3067;DHT22;1544;48.834;9.194;2023-06-22T05:16:17;22.00;66.00
3067;DHT22;1544;48.834;9.194;2023-06-22T05:18:54;22.10;65.60
3067;DHT22;1544;48.834;9.194;2023-06-22T05:21:31;22.10;65.10
3067;DHT22;1544;48.834;9.194;2023-06-22T05:24:07;22.20;64.60
3067;DHT22;1544;48.834;9.194;2023-06-22T05:26:43;22.30;63.90
3067;DHT22;1544;48.834;9.194;2023-06-22T05:29:19;22.30;63.50
3067;DHT22;1544;48.834;9.194;2023-06-22T05:31:55;22.40;62.80
3067;DHT22;1544;48.834;9.194;2023-06-22T05:34:31;22.50;62.30
3067;DHT22;1544;48.834;9.194;2023-06-22T05:37:07;22.50;61.80
3067;DHT22;1544;48.834;9.194;2023-06-22T05:39:45;22.60;61.70
3067;DHT22;1544;48.834;9.194;2023-06-22T05:42:21;22.60;61.10
3067;DHT22;1544;48.834;9.194;2023-06-22T05:44:57;22.70;60.30
3067;DHT22;1544;48.834;9.194;2023-06-22T05:47:34;22.80;59.30
3067;DHT22;1544;48.834;9.194;2023-06-22T05:50:10;22.80;59.00
3067;DHT22;1544;48.834;9.194;2023-06-22T05:52:48;22.80;58.40
3067;DHT22;1544;48.834;9.194;2023-06-22T05:55:24;22.80;58.20
3067;DHT22;1544;48.834;9.194;2023-06-22T05:58:00;22.90;57.60
3067;DHT22;1544;48.834;9.194;2023-06-22T06:00:36;22.90;56.90
3067;DHT22;1544;48.834;9.194;2023-06-22T06:03:12;22.90;56.60
3067;DHT22;1544;48.834;9.194;2023-06-22T06:05:50;23.00;56.60
3067;DHT22;1544;48.834;9.194;2023-06-22T06:08:26;23.00;56.40
3067;DHT22;1544;48.834;9.194;2023-06-22T06:11:02;23.10;56.10
3067;DHT22;1544;48.834;9.194;2023-06-22T06:13:37;23.10;55.90
3067;DHT22;1544;48.834;9.194;2023-06-22T06:16:13;23.20;55.80
3067;DHT22;1544;48.834;9.194;2023-06-22T06:18:49;23.20;55.40
3067;DHT22;1544;48.834;9.194;2023-06-22T06:21:26;23.30;55.30
3067;DHT22;1544;48.834;9.194;2023-06-22T06:24:05;23.30;55.00
3067;DHT22;1544;48.834;9.194;2023-06-22T06:26:41;23.30;53.90
3067;DHT22;1544;48.834;9.194;2023-06-22T06:29:18;23.20;53.30
3067;DHT22;1544;48.834;9.194;2023-06-22T06:31:54;23.20;53.40
3067;DHT22;1544;48.834;9.194;2023-06-22T06:34:30;23.30;53.50
3067;DHT22;1544;48.834;9.194;2023-06-22T06:37:06;23.40;53.50
3067;DHT22;1544;48.834;9.194;2023-06-22T06:39:42;23.40;53.50
3067;DHT22;1544;48.834;9.194;2023-06-22T06:42:19;23.40;53.50
3067;DHT22;1544;48.834;9.194;2023-06-22T06:44:55;23.60;53.60
3067;DHT22;1544;48.834;9.194;2023-06-22T06:47:31;23.60;52.80
3067;DHT22;1544;48.834;9.194;2023-06-22T06:50:08;23.70;52.60
3067;DHT22;1544;48.834;9.194;2023-06-22T06:52:45;23.80;52.60
3067;DHT22;1544;48.834;9.194;2023-06-22T06:55:21;23.80;52.40
3067;DHT22;1544;48.834;9.194;2023-06-22T06:57:59;23.90;52.20
3067;DHT22;1544;48.834;9.194;2023-06-22T07:00:35;24.00;51.70
3067;DHT22;1544;48.834;9.194;2023-06-22T07:03:11;24.10;51.40
3067;DHT22;1544;48.834;9.194;2023-06-22T07:05:47;24.10;50.80
3067;DHT22;1544;48.834;9.194;2023-06-22T07:08:23;24.20;50.40
3067;DHT22;1544;48.834;9.194;2023-06-22T07:10:59;24.30;50.20
3067;DHT22;1544;48.834;9.194;2023-06-22T07:13:36;24.30;49.50
3067;DHT22;1544;48.834;9.194;2023-06-22T07:16:12;24.40;49.70
3067;DHT22;1544;48.834;9.194;2023-06-22T07:18:48;24.50;49.60
3067;DHT22;1544;48.834;9.194;2023-06-22T07:21:24;24.60;49.00
3067;DHT22;1544;48.834;9.194;2023-06-22T07:24:00;24.70;48.00
3067;DHT22;1544;48.834;9.194;2023-06-22T07:26:36;24.70;47.70
3067;DHT22;1544;48.834;9.194;2023-06-22T07:29:12;24.80;47.10
3067;DHT22;1544;48.834;9.194;2023-06-22T07:31:49;25.00;47.20
3067;DHT22;1544;48.834;9.194;2023-06-22T07:34:27;25.00;46.80
3067;DHT22;1544;48.834;9.194;2023-06-22T07:37:03;25.10;46.50
3067;DHT22;1544;48.834;9.194;2023-06-22T07:39:40;25.20;46.60
3067;DHT22;1544;48.834;9.194;2023-06-22T07:42:18;25.30;46.60
3067;DHT22;1544;48.834;9.194;2023-06-22T07:44:54;25.40;46.30
3067;DHT22;1544;48.834;9.194;2023-06-22T07:47:30;25.50;45.70
3067;DHT22;1544;48.834;9.194;2023-06-22T07:50:09;25.60;44.90
3067;DHT22;1544;48.834;9.194;2023-06-22T07:52:45;25.70;44.80
3067;DHT22;1544;48.834;9.194;2023-06-22T07:55:23;25.80;44.40
3067;DHT22;1544;48.834;9.194;2023-06-22T07:57:58;25.90;44.30
3067;DHT22;1544;48.834;9.194;2023-06-22T08:00:34;26.00;44.20
3067;DHT22;1544;48.834;9.194;2023-06-22T08:03:10;26.10;44.00
3067;DHT22;1544;48.834;9.194;2023-06-22T08:05:46;26.20;43.20
3067;DHT22;1544;48.834;9.194;2023-06-22T08:08:24;26.20;42.50
3067;DHT22;1544;48.834;9.194;2023-06-22T08:11:00;26.40;42.80
3067;DHT22;1544;48.834;9.194;2023-06-22T08:13:36;26.40;42.70
3067;DHT22;1544;48.834;9.194;2023-06-22T08:16:12;26.50;42.80
3067;DHT22;1544;48.834;9.194;2023-06-22T08:18:48;26.60;42.40
3067;DHT22;1544;48.834;9.194;2023-06-22T08:21:24;26.80;41.70
3067;DHT22;1544;48.834;9.194;2023-06-22T08:24:00;26.90;41.40
3067;DHT22;1544;48.834;9.194;2023-06-22T08:26:36;27.10;41.50
3067;DHT22;1544;48.834;9.194;2023-06-22T08:29:13;27.40;41.70
3067;DHT22;1544;48.834;9.194;2023-06-22T08:31:50;27.70;41.60
3067;DHT22;1544;48.834;9.194;2023-06-22T08:34:26;28.00;41.10
3067;DHT22;1544;48.834;9.194;2023-06-22T08:37:03;28.20;39.30
3067;DHT22;1544;48.834;9.194;2023-06-22T08:39:41;28.40;38.40
3067;DHT22;1544;48.834;9.194;2023-06-22T08:42:17;28.70;38.30
3067;DHT22;1544;48.834;9.194;2023-06-22T08:44:53;29.00;38.50
3067;DHT22;1544;48.834;9.194;2023-06-22T08:47:29;29.20;38.60
3067;DHT22;1544;48.834;9.194;2023-06-22T08:50:06;29.40;38.50
3067;DHT22;1544;48.834;9.194;2023-06-22T08:52:44;29.50;37.80
3067;DHT22;1544;48.834;9.194;2023-06-22T08:55:21;29.70;37.30
3067;DHT22;1544;48.834;9.194;2023-06-22T08:57:57;29.80;36.60
3067;DHT22;1544;48.834;9.194;2023-06-22T09:00:33;29.90;36.20
3067;DHT22;1544;48.834;9.194;2023-06-22T09:03:10;30.00;35.50
3067;DHT22;1544;48.834;9.194;2023-06-22T09:05:46;30.10;35.70
3067;DHT22;1544;48.834;9.194;2023-06-22T09:08:22;30.10;35.90
3067;DHT22;1544;48.834;9.194;2023-06-22T09:10:58;30.30;36.00
3067;DHT22;1544;48.834;9.194;2023-06-22T09:13:34;30.50;36.30
3067;DHT22;1544;48.834;9.194;2023-06-22T09:16:10;30.80;35.80
3067;DHT22;1544;48.834;9.194;2023-06-22T09:18:47;31.00;36.10
3067;DHT22;1544;48.834;9.194;2023-06-22T09:21:24;31.10;35.30
3067;DHT22;1544;48.834;9.194;2023-06-22T09:24:00;31.00;34.80
3067;DHT22;1544;48.834;9.194;2023-06-22T09:26:36;29.60;33.80
3067;DHT22;1544;48.834;9.194;2023-06-22T09:29:12;31.00;34.60
3067;DHT22;1544;48.834;9.194;2023-06-22T09:31:47;31.20;34.30
3067;DHT22;1544;48.834;9.194;2023-06-22T09:34:24;31.20;34.00
3067;DHT22;1544;48.834;9.194;2023-06-22T09:36:59;31.20;34.00
3067;DHT22;1544;48.834;9.194;2023-06-22T09:39:38;31.20;33.80
3067;DHT22;1544;48.834;9.194;2023-06-22T09:42:14;31.30;33.90
3067;DHT22;1544;48.834;9.194;2023-06-22T09:44:50;31.40;34.30
3067;DHT22;1544;48.834;9.194;2023-06-22T09:47:26;31.40;34.90
3067;DHT22;1544;48.834;9.194;2023-06-22T09:50:02;31.50;35.30
3067;DHT22;1544;48.834;9.194;2023-06-22T09:52:39;31.60;35.20
3067;DHT22;1544;48.834;9.194;2023-06-22T09:55:23;31.70;35.20
3067;DHT22;1544;48.834;9.194;2023-06-22T09:57:59;31.90;35.20
3067;DHT22;1544;48.834;9.194;2023-06-22T10:00:35;32.10;34.90
3067;DHT22;1544;48.834;9.194;2023-06-22T10:03:11;32.30;34.50
3067;DHT22;1544;48.834;9.194;2023-06-22T10:05:47;32.50;34.80
3067;DHT22;1544;48.834;9.194;2023-06-22T10:08:23;32.70;34.20
3067;DHT22;1544;48.834;9.194;2023-06-22T10:10:59;32.90;34.10
3067;DHT22;1544;48.834;9.194;2023-06-22T10:13:35;33.10;33.50
3067;DHT22;1544;48.834;9.194;2023-06-22T10:16:11;33.20;33.40
3067;DHT22;1544;48.834;9.194;2023-06-22T10:18:47;33.40;33.50
3067;DHT22;1544;48.834;9.194;2023-06-22T10:21:23;33.60;33.00
3067;DHT22;1544;48.834;9.194;2023-06-22T10:23:59;33.70;32.30
3067;DHT22;1544;48.834;9.194;2023-06-22T10:26:37;34.00;32.80
3067;DHT22;1544;48.834;9.194;2023-06-22T10:29:13;34.20;32.70
3067;DHT22;1544;48.834;9.194;2023-06-22T10:31:52;34.30;32.30
3067;DHT22;1544;48.834;9.194;2023-06-22T10:34:28;34.50;32.40
3067;DHT22;1544;48.834;9.194;2023-06-22T10:37:04;34.70;32.30
3067;DHT22;1544;48.834;9.194;2023-06-22T10:39:40;34.90;32.00
3067;DHT22;1544;48.834;9.194;2023-06-22T10:42:17;35.20;32.20
3067;DHT22;1544;48.834;9.194;2023-06-22T10:44:52;35.30;32.10
3067;DHT22;1544;48.834;9.194;2023-06-22T10:47:28;35.40;32.20
3067;DHT22;1544;48.834;9.194;2023-06-22T10:50:05;35.70;32.40
3067;DHT22;1544;48.834;9.194;2023-06-22T10:52:41;35.90;31.70
3067;DHT22;1544;48.834;9.194;2023-06-22T10:55:17;36.00;31.60
3067;DHT22;1544;48.834;9.194;2023-06-22T10:57:53;36.00;30.80
3067;DHT22;1544;48.834;9.194;2023-06-22T11:00:29;36.10;31.30
3067;DHT22;1544;48.834;9.194;2023-06-22T11:03:05;36.20;31.30
3067;DHT22;1544;48.834;9.194;2023-06-22T11:05:41;36.20;30.90
3067;DHT22;1544;48.834;9.194;2023-06-22T11:08:17;36.30;30.40
3067;DHT22;1544;48.834;9.194;2023-06-22T11:10:53;36.40;30.80
3067;DHT22;1544;48.834;9.194;2023-06-22T11:13:29;36.40;30.30
3067;DHT22;1544;48.834;9.194;2023-06-22T11:16:05;36.30;30.40
3067;DHT22;1544;48.834;9.194;2023-06-22T11:18:41;36.40;30.80
3067;DHT22;1544;48.834;9.194;2023-06-22T11:21:17;36.50;30.70
3067;DHT22;1544;48.834;9.194;2023-06-22T11:23:53;36.50;30.80
3067;DHT22;1544;48.834;9.194;2023-06-22T11:26:29;36.50;30.90
3067;DHT22;1544;48.834;9.194;2023-06-22T11:29:05;36.50;31.20
3067;DHT22;1544;48.834;9.194;2023-06-22T11:31:41;36.60;30.90
3067;DHT22;1544;48.834;9.194;2023-06-22T11:34:19;36.60;30.60
3067;DHT22;1544;48.834;9.194;2023-06-22T11:36:55;36.50;30.30
3067;DHT22;1544;48.834;9.194;2023-06-22T11:39:31;36.40;30.20
3067;DHT22;1544;48.834;9.194;2023-06-22T11:42:17;36.20;30.50
3067;DHT22;1544;48.834;9.194;2023-06-22T11:44:53;36.20;30.70
3067;DHT22;1544;48.834;9.194;2023-06-22T11:47:29;36.20;30.80
3067;DHT22;1544;48.834;9.194;2023-06-22T11:50:06;36.20;31.00
3067;DHT22;1544;48.834;9.194;2023-06-22T11:52:42;36.30;30.70
3067;DHT22;1544;48.834;9.194;2023-06-22T11:55:18;36.40;31.00
3067;DHT22;1544;48.834;9.194;2023-06-22T11:57:55;36.40;30.80
3067;DHT22;1544;48.834;9.194;2023-06-22T12:00:34;36.30;31.10
3067;DHT22;1544;48.834;9.194;2023-06-22T12:03:25;36.20;31.00
3067;DHT22;1544;48.834;9.194;2023-06-22T12:06:01;36.10;31.10
3067;DHT22;1544;48.834;9.194;2023-06-22T12:08:37;36.10;31.10
3067;DHT22;1544;48.834;9.194;2023-06-22T12:11:15;36.00;30.80
3067;DHT22;1544;48.834;9.194;2023-06-22T12:13:51;35.90;30.90
3067;DHT22;1544;48.834;9.194;2023-06-22T12:16:28;35.80;30.90
3067;DHT22;1544;48.834;9.194;2023-06-22T12:19:04;35.70;30.30
3067;DHT22;1544;48.834;9.194;2023-06-22T12:21:40;35.60;30.60
3067;DHT22;1544;48.834;9.194;2023-06-22T12:24:16;35.60;30.80
3067;DHT22;1544;48.834;9.194;2023-06-22T12:26:52;35.60;31.00
3067;DHT22;1544;48.834;9.194;2023-06-22T12:29:31;35.60;30.80
3067;DHT22;1544;48.834;9.194;2023-06-22T12:32:07;35.60;30.80
3067;DHT22;1544;48.834;9.194;2023-06-22T12:34:43;35.60;30.80
3067;DHT22;1544;48.834;9.194;2023-06-22T12:37:23;35.70;30.30
3067;DHT22;1544;48.834;9.194;2023-06-22T12:39:59;35.70;30.40
3067;DHT22;1544;48.834;9.194;2023-06-22T12:42:35;35.70;30.10
3067;DHT22;1544;48.834;9.194;2023-06-22T12:45:11;35.70;30.70
3067;DHT22;1544;48.834;9.194;2023-06-22T12:47:47;35.60;30.30
3067;DHT22;1544;48.834;9.194;2023-06-22T12:50:25;35.60;30.50
3067;DHT22;1544;48.834;9.194;2023-06-22T12:53:01;35.60;30.60
3067;DHT22;1544;48.834;9.194;2023-06-22T12:55:39;35.60;30.20
3067;DHT22;1544;48.834;9.194;2023-06-22T12:58:15;35.60;30.30
3067;DHT22;1544;48.834;9.194;2023-06-22T13:00:53;35.70;30.50
3067;DHT22;1544;48.834;9.194;2023-06-22T13:03:29;35.70;30.30
3067;DHT22;1544;48.834;9.194;2023-06-22T13:06:05;35.60;30.50
3067;DHT22;1544;48.834;9.194;2023-06-22T13:08:40;35.50;30.40
3067;DHT22;1544;48.834;9.194;2023-06-22T13:11:36;35.30;30.60
3067;DHT22;1544;48.834;9.194;2023-06-22T13:14:12;35.20;30.70
3067;DHT22;1544;48.834;9.194;2023-06-22T13:16:49;35.10;30.40
3067;DHT22;1544;48.834;9.194;2023-06-22T13:19:25;35.10;30.60
3067;DHT22;1544;48.834;9.194;2023-06-22T13:22:04;35.10;30.80
3067;DHT22;1544;48.834;9.194;2023-06-22T13:24:41;35.00;31.00
3067;DHT22;1544;48.834;9.194;2023-06-22T13:27:17;35.00;31.20
3067;DHT22;1544;48.834;9.194;2023-06-22T13:29:53;35.00;31.30
3067;DHT22;1544;48.834;9.194;2023-06-22T13:32:29;35.00;31.20
3067;DHT22;1544;48.834;9.194;2023-06-22T13:35:05;35.20;31.20
3067;DHT22;1544;48.834;9.194;2023-06-22T13:37:41;35.40;31.00
3067;DHT22;1544;48.834;9.194;2023-06-22T13:40:17;35.50;31.00
3067;DHT22;1544;48.834;9.194;2023-06-22T13:42:53;35.80;31.00
3067;DHT22;1544;48.834;9.194;2023-06-22T13:45:31;36.00;30.70
3067;DHT22;1544;48.834;9.194;2023-06-22T13:48:07;36.10;30.30
3067;DHT22;1544;48.834;9.194;2023-06-22T13:50:44;36.30;30.30
3067;DHT22;1544;48.834;9.194;2023-06-22T13:53:19;36.40;30.70
3067;DHT22;1544;48.834;9.194;2023-06-22T13:55:56;36.60;30.80
3067;DHT22;1544;48.834;9.194;2023-06-22T13:58:32;36.70;30.70
3067;DHT22;1544;48.834;9.194;2023-06-22T14:01:08;36.70;30.40
3067;DHT22;1544;48.834;9.194;2023-06-22T14:03:51;36.70;30.60
3067;DHT22;1544;48.834;9.194;2023-06-22T14:06:27;36.70;30.50
3067;DHT22;1544;48.834;9.194;2023-06-22T14:09:03;36.70;30.40
3067;DHT22;1544;48.834;9.194;2023-06-22T14:11:39;36.70;30.10
3067;DHT22;1544;48.834;9.194;2023-06-22T14:14:15;36.70;30.10
3067;DHT22;1544;48.834;9.194;2023-06-22T14:16:51;36.70;30.50
3067;DHT22;1544;48.834;9.194;2023-06-22T14:19:27;36.70;30.10
3067;DHT22;1544;48.834;9.194;2023-06-22T14:22:03;36.60;30.10
3067;DHT22;1544;48.834;9.194;2023-06-22T14:24:39;36.70;30.00
3067;DHT22;1544;48.834;9.194;2023-06-22T14:27:15;36.80;29.30
3067;DHT22;1544;48.834;9.194;2023-06-22T14:29:51;37.10;28.90
3067;DHT22;1544;48.834;9.194;2023-06-22T14:32:28;37.60;28.60
3067;DHT22;1544;48.834;9.194;2023-06-22T14:35:07;37.80;28.80
3067;DHT22;1544;48.834;9.194;2023-06-22T14:37:43;37.80;28.60
3067;DHT22;1544;48.834;9.194;2023-06-22T14:40:19;38.00;29.00
3067;DHT22;1544;48.834;9.194;2023-06-22T14:42:56;38.10;28.50
3067;DHT22;1544;48.834;9.194;2023-06-22T14:45:32;38.10;28.50
3067;DHT22;1544;48.834;9.194;2023-06-22T14:48:08;38.00;28.60
3067;DHT22;1544;48.834;9.194;2023-06-22T14:50:44;37.90;28.90
3067;DHT22;1544;48.834;9.194;2023-06-22T14:53:20;38.00;28.80
3067;DHT22;1544;48.834;9.194;2023-06-22T14:55:56;38.20;28.50
3067;DHT22;1544;48.834;9.194;2023-06-22T14:58:32;38.40;27.90
3067;DHT22;1544;48.834;9.194;2023-06-22T15:01:09;37.80;27.70
3067;DHT22;1544;48.834;9.194;2023-06-22T15:03:45;38.30;28.00
3067;DHT22;1544;48.834;9.194;2023-06-22T15:06:21;38.30;27.40
3067;DHT22;1544;48.834;9.194;2023-06-22T15:08:57;38.30;26.20
3067;DHT22;1544;48.834;9.194;2023-06-22T15:11:33;38.20;24.50
3067;DHT22;1544;48.834;9.194;2023-06-22T15:14:09;38.00;24.90
3067;DHT22;1544;48.834;9.194;2023-06-22T15:16:46;38.00;24.80
3067;DHT22;1544;48.834;9.194;2023-06-22T15:19:22;37.90;24.70
3067;DHT22;1544;48.834;9.194;2023-06-22T15:21:58;37.80;24.90
3067;DHT22;1544;48.834;9.194;2023-06-22T15:24:34;37.90;24.40
3067;DHT22;1544;48.834;9.194;2023-06-22T15:27:10;38.00;24.30
3067;DHT22;1544;48.834;9.194;2023-06-22T15:29:46;38.10;24.40
3067;DHT22;1544;48.834;9.194;2023-06-22T15:32:22;38.30;24.60
3067;DHT22;1544;48.834;9.194;2023-06-22T15:34:59;38.60;24.50
3067;DHT22;1544;48.834;9.194;2023-06-22T15:37:34;39.10;24.30
3067;DHT22;1544;48.834;9.194;2023-06-22T15:40:10;39.30;24.20
3067;DHT22;1544;48.834;9.194;2023-06-22T15:42:49;39.70;24.40
3067;DHT22;1544;48.834;9.194;2023-06-22T15:45:28;39.60;23.90
3067;DHT22;1544;48.834;9.194;2023-06-22T15:48:04;39.50;23.80
3067;DHT22;1544;48.834;9.194;2023-06-22T15:50:41;39.00;23.70
3067;DHT22;1544;48.834;9.194;2023-06-22T15:53:17;38.50;24.10
3067;DHT22;1544;48.834;9.194;2023-06-22T15:55:52;38.10;24.20
3067;DHT22;1544;48.834;9.194;2023-06-22T15:58:30;38.00;24.50
3067;DHT22;1544;48.834;9.194;2023-06-22T16:01:05;37.80;24.20
3067;DHT22;1544;48.834;9.194;2023-06-22T16:03:41;37.70;24.40
3067;DHT22;1544;48.834;9.194;2023-06-22T16:06:17;37.70;24.50
3067;DHT22;1544;48.834;9.194;2023-06-22T16:08:54;37.70;24.80
3067;DHT22;1544;48.834;9.194;2023-06-22T16:11:30;37.40;24.70
3067;DHT22;1544;48.834;9.194;2023-06-22T16:14:05;37.00;24.80
3067;DHT22;1544;48.834;9.194;2023-06-22T16:16:44;36.70;25.10
3067;DHT22;1544;48.834;9.194;2023-06-22T16:19:20;36.40;25.40
3067;DHT22;1544;48.834;9.194;2023-06-22T16:21:56;36.10;25.50
3067;DHT22;1544;48.834;9.194;2023-06-22T16:24:32;35.80;25.80
3067;DHT22;1544;48.834;9.194;2023-06-22T16:27:07;35.60;25.80
3067;DHT22;1544;48.834;9.194;2023-06-22T16:29:43;35.50;25.90
3067;DHT22;1544;48.834;9.194;2023-06-22T16:32:20;35.40;26.20
3067;DHT22;1544;48.834;9.194;2023-06-22T16:34:55;35.30;26.00
3067;DHT22;1544;48.834;9.194;2023-06-22T16:37:31;35.10;26.00
3067;DHT22;1544;48.834;9.194;2023-06-22T16:40:08;34.80;25.30
3067;DHT22;1544;48.834;9.194;2023-06-22T16:42:49;34.70;25.30
3067;DHT22;1544;48.834;9.194;2023-06-22T16:45:27;34.50;25.50
3067;DHT22;1544;48.834;9.194;2023-06-22T16:48:03;34.50;25.60
3067;DHT22;1544;48.834;9.194;2023-06-22T16:50:40;34.80;25.80
3067;DHT22;1544;48.834;9.194;2023-06-22T16:53:16;35.10;25.60
3067;DHT22;1544;48.834;9.194;2023-06-22T16:55:53;35.50;25.40
3067;DHT22;1544;48.834;9.194;2023-06-22T16:58:29;35.70;25.20
3067;DHT22;1544;48.834;9.194;2023-06-22T17:01:07;35.70;25.20
3067;DHT22;1544;48.834;9.194;2023-06-22T17:03:50;35.40;25.40
3067;DHT22;1544;48.834;9.194;2023-06-22T17:06:42;35.20;25.60
3067;DHT22;1544;48.834;9.194;2023-06-22T17:09:26;34.80;25.80
3067;DHT22;1544;48.834;9.194;2023-06-22T17:12:03;34.60;26.40